• Join FlightAware (Why Join?)
  • Login
  • US Flag 
06:19AM EDT


 

Airport Tracker/Info


-or-


 

Live Flight TrackerFlight Track Log ✈ N373LD ✈ 16-Nov-2013 ✈ KMLS - KAPA

Flight Track Log - Related Links

Times and Time Zones

All times are in EST time to prevent confusion due to time zone crossing. See the N373LD flight status page for this flight to view local times or setup timezone preferences in your user account.

Time Position Orientation Groundspeed Altitude Reporting Facility
EST Latitude Longitude Course Direction KTS MPH feet Rate Location/Type
04:12PM 46.2003 -105.9078 173° South 161 185 11,100  Level Salt Lake Center
04:13PM 46.0751 -105.8268 173° South  Level Estimated
04:13PM 46.1600 -105.8967 169° South 166 191 12,200  Level Salt Lake Center
04:14PM 46.0163 -105.8169 173° South  Level Estimated
04:14PM 46.1036 -105.8878 174° South 169 194 13,600  Level Salt Lake Center
04:15PM 45.9574 -105.8071 173° South  Level Estimated
04:15PM 46.0547 -105.8794 173° South 173 199 14,800  Level Salt Lake Center
04:16PM 45.8986 -105.7973 173° South  Level Estimated
04:16PM 46.0058 -105.8714 173° South 176 203 16,100  Level Salt Lake Center
04:17PM 45.8398 -105.7875 173° South  Level Estimated
04:17PM 45.9572 -105.8619 172° South 176 203 17,000  Level Salt Lake Center
04:18PM 45.7810 -105.7778 173° South  Level Estimated
04:18PM 45.9081 -105.8544 174° South 177 204 18,700  Level Salt Lake Center
04:19PM 45.8583 -105.8461 173° South 179 206 19,700 900 Climbing Salt Lake Center
04:20PM 45.8097 -105.8389 174° South 177 204 20,600 1,020 Climbing Salt Lake Center
04:21PM 45.7603 -105.8286 172° South 179 206 21,800 1,020 Climbing Salt Lake Center
04:22PM 45.7119 -105.8242 176° South 177 204 22,700 960 Climbing Salt Lake Center
04:23PM 45.6644 -105.8156 173° South 174 200 23,800 1,020 Climbing Salt Lake Center
04:24PM 45.6083 -105.8061 173° South 171 197 24,900 960 Climbing Salt Lake Center
04:25PM 45.5603 -105.7986 174° South 173 199 25,800 780 Climbing Salt Lake Center
04:26PM 45.5097 -105.7897 173° South 178 205 26,600 540 Climbing Salt Lake Center
04:27PM 45.4597 -105.7847 176° South 182 209 27,000 180 Climbing Salt Lake Center
04:29PM 45.4022 -105.7758 174° South 204 235 27,000  Level Salt Lake Center
04:30PM 45.3422 -105.7669 174° South 216 249 27,000  Level Salt Lake Center
04:31PM 45.2803 -105.7550 172° South 222 255 27,000  Level Salt Lake Center
04:32PM 45.2161 -105.7433 173° South 229 264 27,000  Level Salt Lake Center
04:33PM 45.1531 -105.7328 173° South 229 264 27,000  Level Salt Lake Center
04:34PM 45.0894 -105.7219 173° South 231 266 27,000  Level Salt Lake Center
04:35PM 45.0167 -105.7103 174° South 221 254 27,000  Level Salt Lake Center
04:36PM 44.9558 -105.7022 175° South 221 254 27,000  Level Salt Lake Center
04:37PM 44.8961 -105.6911 172° South 218 251 27,000  Level Salt Lake Center
04:38PM 44.8364 -105.6814 173° South 217 250 27,000  Level Salt Lake Center
04:39PM 44.7742 -105.6719 174° South 224 258 27,000  Level Salt Lake Center
04:40PM 44.7092 -105.6606 173° South 222 255 27,000  Level Salt Lake Center
04:41PM 44.6486 -105.6500 173° South 227 261 27,000  Level Salt Lake Center
04:42PM 44.5781 -105.6394 174° South 229 264 27,000  Level Salt Lake Center
04:43PM 44.5189 -105.6292 173° South 225 259 27,000  Level Salt Lake Center
04:43PM 44.4856 -105.6244 174° South 226 260 27,000  Level Denver Center
04:44PM 44.4183 -105.6139 174° South 226 260 27,000  Level Denver Center
04:45PM 44.3586 -105.6050 174° South 226 260 27,000  Level Denver Center
04:46PM 44.2892 -105.5947 174° South 226 260 27,000  Level Denver Center
04:47PM 44.2289 -105.5850 173° South 226 260 27,000  Level Denver Center
04:48PM 44.1697 -105.5753 173° South 225 259 27,000  Level Denver Center
04:50PM 44.0994 -105.5650 174° South 227 261 27,000  Level Denver Center
04:51PM 44.0397 -105.5542 173° South 227 261 27,000  Level Denver Center
04:52PM 43.9694 -105.5450 175° South 226 260 27,000  Level Denver Center
04:53PM 43.9119 -105.5336 172° South 223 257 27,000  Level Denver Center
04:54PM 43.8319 -105.5219 174° South 225 259 27,000  Level Denver Center
04:55PM 43.7722 -105.5111 173° South 227 261 27,000  Level Denver Center
04:56PM 43.7017 -105.5014 174° South 228 262 27,000  Level Denver Center
04:57PM 43.6411 -105.4911 173° South 228 262 27,000  Level Denver Center
04:58PM 43.5725 -105.4806 174° South 225 259 27,000  Level Denver Center
04:59PM 43.5028 -105.4717 175° South 224 258 27,000  Level Denver Center
05:00PM 43.4317 -105.4614 174° South 229 264 27,000  Level Denver Center
05:01PM 43.3731 -105.4531 174° South 227 261 27,000  Level Denver Center
05:02PM 43.3061 -105.4417 173° South 218 251 27,000  Level Denver Center
05:03PM 43.2489 -105.4339 174° South 217 250 27,000  Level Denver Center
05:04PM 43.1928 -105.4247 173° South 214 246 27,000  Level Denver Center
05:05PM 43.1281 -105.4139 173° South 211 243 27,000  Level Denver Center
05:07PM 43.0550 -105.4033 174° South 209 241 27,000  Level Denver Center
05:08PM 42.9986 -105.3958 174° South 210 242 27,000  Level Denver Center
05:09PM 42.9394 -105.3867 174° South 216 249 27,000  Level Denver Center
05:10PM 42.8706 -105.3761 174° South 222 255 27,000  Level Denver Center
05:11PM 42.8114 -105.3675 174° South 224 258 27,000  Level Denver Center
05:12PM 42.7433 -105.3575 174° South 221 254 27,000  Level Denver Center
05:13PM 42.6839 -105.3483 174° South 225 259 27,000  Level Denver Center
05:14PM 42.6167 -105.3378 173° South 219 252 27,000  Level Denver Center
05:15PM 42.5600 -105.3283 173° South 216 249 27,000  Level Denver Center
05:16PM 42.4828 -105.3186 175° South 218 251 27,000  Level Denver Center
05:17PM 42.4139 -105.3078 173° South 224 258 27,000  Level Denver Center
05:18PM 42.3433 -105.2975 174° South 229 264 27,000  Level Denver Center
05:19PM 42.2800 -105.2886 174° South 237 273 27,000  Level Denver Center
05:20PM 42.2064 -105.2775 174° South 239 275 27,000  Level Denver Center
05:21PM 42.1425 -105.2675 173° South 243 280 27,000  Level Denver Center
05:22PM 42.0694 -105.2572 174° South 238 274 27,000  Level Denver Center
05:23PM 42.0067 -105.2489 174° South 237 273 27,000  Level Denver Center
05:24PM 41.9358 -105.2378 173° South 232 267 27,000  Level Denver Center
05:25PM 41.8769 -105.2292 174° South 224 258 27,000  Level Denver Center
05:26PM 41.8178 -105.2203 174° South 224 258 27,000  Level Denver Center
05:27PM 41.7464 -105.2103 174° South 230 265 27,000 -300 Level Denver Center
05:28PM 41.6861 -105.2014 174° South 230 265 26,500 -540 Descending Denver Center
05:29PM 41.6103 -105.1900 174° South 243 280 26,000 -480 Descending Denver Center
05:30PM 41.5442 -105.1806 174° South 249 287 25,600 -540 Descending Denver Center
05:31PM 41.4708 -105.1694 174° South 241 277 25,000 -300 Descending Denver Center
05:33PM 41.4069 -105.1617 175° South 241 277 25,000 -240 Level Denver Center
05:34PM 41.3422 -105.1519 174° South 244 281 24,600 -900 Descending Denver Center
05:35PM 41.2650 -105.1406 174° South 249 287 23,200 -1,320 Descending Denver Center
05:36PM 41.2033 -105.1325 174° South 240 276 21,900 -1,320 Descending Denver Center
05:37PM 41.1311 -105.1231 174° South 234 269 20,500 -1,380 Descending Denver Center
05:38PM 41.0697 -105.1128 173° South 234 269 19,100 -1,560 Descending Denver Center
05:39PM 41.0044 -105.1044 174° South 226 260 17,000 -1,380 Descending Denver Center
05:40PM 40.9347 -105.0933 173° South 212 244 16,100 -480 Descending Denver Center
05:41PM 40.8772 -105.0858 174° South 209 241 16,100 -180 Level Denver Center
05:42PM 40.8183 -105.0761 173° South 211 243 15,800 -540 Descending Denver Center
05:43PM 40.7586 -105.0683 174° South 215 247 15,100 -780 Descending Denver Center
05:44PM 40.6978 -105.0767 186° South 182 209 14,300 -780 Descending Denver Center
05:45PM 40.6508 -105.0786 182° South 171 197 13,600 -720 Descending Denver Center
05:46PM 40.6036 -105.0825 184° South 170 196 12,900 -720 Descending Denver Center
05:47PM 40.5597 -105.0319 139° Southeast 200 230 12,200 -420 Descending Denver Center
05:48PM 40.5286 -104.9817 129° Southeast 180 207 12,100 -60 Descending Denver Center
05:49PM 40.4911 -104.9244 131° Southeast 203 234 12,100 -60 Level Denver Center
05:50PM 40.4333 -104.9403 192° South 202 232 12,000 -360 Descending Denver Center
05:51PM 40.3881 -104.9592 198° South 178 205 11,400 -600 Descending Denver Center
05:52PM 40.3578 -104.9689 194° South 121 139 10,800 -720 Descending Denver Center
05:53PM 40.3122 -104.9875 197° South 163 188 10,000 -780 Descending Denver Center
05:54PM 40.2731 -104.9925 186° South 168 193 9,300 -480 Descending Denver Center
05:55PM 40.2242 -104.9931 180° South 140 161 9,100 -240 Descending Denver Center
05:56PM 40.1842 -104.9933 180° South 141 162 8,900  Descending Denver Center
05:58PM 40.1383 -104.9983 185° South 151 174 9,100 60 Climbing Denver Center
05:59PM 40.0811 -105.0111 190° South 167 192 9,100 -60 Level Denver Center
06:00PM 40.0317 -105.0228 190° South 179 206 9,000  Descending Denver Center
06:01PM 39.9875 -105.0278 185° South 164 189 9,200  Climbing Denver Center
06:02PM 39.9347 -105.0375 188° South 177 204 9,000 -120 Descending Denver Center
06:03PM 39.8869 -105.0336 176° South 171 197 9,000 -180 Level Denver Center
06:04PM 39.8400 -105.0081 157° South 181 208 8,600 -420 Descending Denver Center
06:05PM 39.7825 -104.9700 153° Southeast 188 216 8,100 -540 Descending Denver Center
06:06PM 39.7333 -104.9381 153° Southeast 185 213 7,500 -540 Descending Denver Center
06:07PM 39.6878 -104.9039 150° Southeast 188 216 7,100 -360 Descending Denver Center
06:08PM 39.6475 -104.8739 150° Southeast 171 197 6,800 -480 Descending Denver Center
06:09PM 39.6064 -104.8522 158° South 150 173 6,200 -540 Descending Denver Center
06:10PM 39.5758 -104.8506 178° South 117 135 5,800 -420 Descending Denver Center
06:12PM 39.5701 -104.8493 90° East  Level Estimated
06:19PM 39.5701 -104.8493 90° East  Level Estimated
06:20PM 39.5701 -104.8493 90° East  Level Estimated